createdAt,value
2019-01-25T00:01:40.640Z,101107.86
2019-01-25T00:04:10.235Z,101104.95
2019-01-25T00:06:39.827Z,101106.17
2019-01-25T00:09:09.821Z,101112.68
2019-01-25T00:11:39.487Z,101107.17
2019-01-25T00:14:09.197Z,101113.89
2019-01-25T00:16:38.790Z,101112.28
2019-01-25T00:19:08.459Z,101115.25
2019-01-25T00:21:38.122Z,101108.36
2019-01-25T00:24:07.832Z,101106.26
2019-01-25T00:26:37.520Z,101111.19
2019-01-25T00:29:07.089Z,101107.42
2019-01-25T00:31:36.691Z,101110.33
2019-01-25T00:34:06.325Z,101105.59
2019-01-25T00:36:35.918Z,101106.71
2019-01-25T00:39:07.625Z,101101.30
2019-01-25T00:41:37.287Z,101099.59
2019-01-25T00:44:07.035Z,101101.61
2019-01-25T00:46:36.599Z,101106.20
2019-01-25T00:49:06.356Z,101108.89
2019-01-25T00:51:35.913Z,101108.86
2019-01-25T00:54:06.291Z,101110.66
2019-01-25T00:56:35.989Z,101107.71
2019-01-25T00:59:05.943Z,101113.35
2019-01-25T01:01:35.611Z,101115.82
2019-01-25T01:04:05.925Z,101119.48
2019-01-25T01:06:35.627Z,101115.75
2019-01-25T01:09:08.599Z,101116.75
2019-01-25T01:11:38.222Z,101110.33
2019-01-25T01:14:07.847Z,101115.63
2019-01-25T01:16:37.413Z,101116.13
2019-01-25T01:19:07.118Z,101119.71
2019-01-25T01:21:36.710Z,101114.38
2019-01-25T01:24:06.367Z,101111.89
2019-01-25T01:26:36.335Z,101110.15
2019-01-25T01:29:05.946Z,101112.30
2019-01-25T01:31:35.760Z,101111.31
2019-01-25T01:34:05.616Z,101111.50
2019-01-25T01:36:35.260Z,101110.67
2019-01-25T01:39:07.080Z,101105.88
2019-01-25T01:41:36.662Z,101108.52
2019-01-25T01:44:06.296Z,101111.20
2019-01-25T01:46:35.891Z,101110.71
2019-01-25T01:49:05.912Z,101106.89
2019-01-25T01:51:35.492Z,101113.18
2019-01-25T01:54:05.384Z,101101.28
2019-01-25T01:56:34.970Z,101107.92
2019-01-25T01:59:04.554Z,101109.89
2019-01-25T02:01:34.239Z,101116.31
2019-01-25T02:04:03.960Z,101115.13
2019-01-25T02:06:33.639Z,101114.48
2019-01-25T02:09:05.158Z,101107.69
2019-01-25T02:11:34.814Z,101105.27
2019-01-25T02:14:04.468Z,101108.57
2019-01-25T02:16:34.134Z,101104.27
2019-01-25T02:19:04.508Z,101103.27
2019-01-25T02:21:34.090Z,101099.61
2019-01-25T02:24:03.696Z,101101.63
2019-01-25T02:26:33.386Z,101101.30
2019-01-25T02:29:02.892Z,101109.22
2019-01-25T02:31:32.496Z,101101.95
2019-01-25T02:34:02.379Z,101099.81
2019-01-25T02:36:31.950Z,101107.53
2019-01-25T02:39:01.634Z,101108.03
2019-01-25T02:41:31.241Z,101105.59
2019-01-25T02:44:01.375Z,101111.21
2019-01-25T02:46:30.912Z,101109.58
2019-01-25T02:49:00.525Z,101110.91
2019-01-25T02:51:30.072Z,101108.73
2019-01-25T02:53:59.642Z,101112.53
2019-01-25T02:56:29.218Z,101109.89
2019-01-25T02:58:58.821Z,101106.79
2019-01-25T03:01:28.376Z,101104.30
2019-01-25T03:03:58.025Z,101099.67
2019-01-25T03:06:27.675Z,101103.73
2019-01-25T03:08:57.237Z,101105.33
2019-01-25T03:11:26.801Z,101108.72
2019-01-25T03:13:56.424Z,101105.11
2019-01-25T03:16:26.111Z,101100.66
2019-01-25T03:18:55.674Z,101104.45
2019-01-25T03:21:25.245Z,101096.70
2019-01-25T03:23:54.842Z,101097.66
2019-01-25T03:26:24.476Z,101097.67
2019-01-25T03:28:54.119Z,101095.72
2019-01-25T03:31:23.782Z,101092.10
2019-01-25T03:33:53.419Z,101091.34
2019-01-25T03:36:23.011Z,101095.29
2019-01-25T03:38:52.577Z,101092.20
2019-01-25T03:41:22.179Z,101094.99
2019-01-25T03:43:51.970Z,101094.36
2019-01-25T03:46:21.639Z,101093.02
2019-01-25T03:48:51.366Z,101096.35
2019-01-25T03:51:20.943Z,101096.20
2019-01-25T03:53:50.733Z,101098.02
2019-01-25T03:56:20.328Z,101091.73
2019-01-25T03:58:49.985Z,101098.99
2019-01-25T04:01:19.605Z,101093.58
2019-01-25T04:03:49.153Z,101097.38
2019-01-25T04:06:18.977Z,101099.83
2019-01-25T04:08:48.769Z,101106.56
2019-01-25T04:11:18.381Z,101101.49
2019-01-25T04:13:48.129Z,101110.87
2019-01-25T04:16:17.736Z,101108.09
2019-01-25T04:18:47.399Z,101106.73
2019-01-25T04:21:16.990Z,101111.36
2019-01-25T04:23:46.580Z,101113.71
2019-01-25T04:26:16.155Z,101112.19
2019-01-25T04:28:45.754Z,101115.49
2019-01-25T04:31:15.403Z,101116.97
2019-01-25T04:33:45.001Z,101110.20
2019-01-25T04:36:14.630Z,101114.17
2019-01-25T04:38:44.355Z,101110.23
2019-01-25T04:41:13.935Z,101113.31
2019-01-25T04:43:43.511Z,101110.88
2019-01-25T04:46:13.078Z,101110.52
2019-01-25T04:48:42.643Z,101101.03
2019-01-25T04:51:13.993Z,101104.67
2019-01-25T04:53:43.556Z,101110.61
2019-01-25T04:56:13.145Z,101113.79
2019-01-25T04:58:42.729Z,101116.31
2019-01-25T05:01:12.467Z,101117.92
2019-01-25T05:03:42.276Z,101132.61
2019-01-25T05:06:12.601Z,101122.15
2019-01-25T05:08:42.176Z,101124.98
2019-01-25T05:11:20.216Z,101128.24
2019-01-25T05:13:50.041Z,101120.53
2019-01-25T05:16:19.677Z,101125.20
2019-01-25T05:18:49.245Z,101121.25
2019-01-25T05:21:25.827Z,101127.70
2019-01-25T05:23:55.417Z,101120.56
2019-01-25T05:26:25.073Z,101128.15
2019-01-25T05:28:54.671Z,101126.12
2019-01-25T05:31:27.469Z,101124.49
2019-01-25T05:33:59.271Z,101130.94
2019-01-25T05:36:29.042Z,101141.52
2019-01-25T05:38:58.629Z,101149.03
2019-01-25T05:41:28.926Z,101141.14
2019-01-25T05:43:58.611Z,101135.59
2019-01-25T05:46:28.230Z,101136.91
2019-01-25T05:48:57.851Z,101134.95
2019-01-25T05:51:33.525Z,101139.47
2019-01-25T05:53:58.743Z,101140.14
2019-01-25T05:56:28.310Z,101142.06
2019-01-25T05:58:57.896Z,101142.42
2019-01-25T06:01:27.455Z,101138.44
2019-01-25T06:03:58.033Z,101131.38
2019-01-25T06:06:29.321Z,101138.89
2019-01-25T06:08:58.880Z,101133.47
2019-01-25T06:11:35.254Z,101139.89
2019-01-25T06:13:59.757Z,101130.48
2019-01-25T06:16:29.986Z,101144.80
2019-01-25T06:18:59.530Z,101139.86
2019-01-25T06:21:29.151Z,101140.64
2019-01-25T06:23:58.717Z,101148.10
2019-01-25T06:26:28.399Z,101139.19
2019-01-25T06:28:57.969Z,101135.58
2019-01-25T06:31:27.564Z,101133.95
2019-01-25T06:33:57.100Z,101139.38
2019-01-25T06:36:26.704Z,101141.53
2019-01-25T06:38:56.268Z,101141.69
2019-01-25T06:41:25.962Z,101144.95
2019-01-25T06:43:55.521Z,101142.67
2019-01-25T06:46:25.069Z,101143.64
2019-01-25T06:48:54.679Z,101131.52
2019-01-25T06:51:24.345Z,101136.20
2019-01-25T06:53:53.948Z,101139.87
2019-01-25T06:56:23.555Z,101144.50
2019-01-25T06:59:24.317Z,101150.17
2019-01-25T07:02:12.899Z,101153.28
2019-01-25T07:04:42.504Z,101145.56
2019-01-25T07:07:25.869Z,101145.05
2019-01-25T07:09:55.464Z,101141.63
2019-01-25T07:12:25.126Z,101136.66
2019-01-25T07:14:54.760Z,101129.95
2019-01-25T07:17:24.450Z,101128.52
2019-01-25T07:19:54.072Z,101140.02
2019-01-25T07:22:23.673Z,101138.58
2019-01-25T07:24:57.286Z,101130.73
2019-01-25T07:27:24.906Z,101130.77
2019-01-25T07:29:54.592Z,101135.07
2019-01-25T07:32:24.139Z,101120.08
2019-01-25T07:34:53.741Z,101122.89
2019-01-25T07:37:23.405Z,101118.78
2019-01-25T07:39:53.055Z,101123.22
2019-01-25T07:42:22.637Z,101129.80
2019-01-25T07:44:52.239Z,101117.96
2019-01-25T07:47:21.944Z,101127.20
2019-01-25T07:49:51.584Z,101132.65
2019-01-25T07:52:21.181Z,101135.28
2019-01-25T07:54:50.817Z,101138.09
2019-01-25T07:57:20.431Z,101134.08
2019-01-25T07:59:50.038Z,101130.66
2019-01-25T08:02:19.655Z,101132.32
2019-01-25T08:04:50.111Z,101132.61
2019-01-25T08:07:19.756Z,101129.33
2019-01-25T08:09:49.329Z,101127.52
2019-01-25T08:12:18.945Z,101138.47
2019-01-25T08:14:48.618Z,101144.68
2019-01-25T08:17:18.241Z,101136.33
2019-01-25T08:19:47.925Z,101146.88
2019-01-25T08:22:17.542Z,101148.05
2019-01-25T08:24:47.131Z,101148.38
2019-01-25T08:27:16.724Z,101151.55
2019-01-25T08:29:46.327Z,101156.16
2019-01-25T08:32:15.944Z,101150.12
2019-01-25T08:34:45.511Z,101151.47
2019-01-25T08:37:15.093Z,101145.31
2019-01-25T08:39:44.893Z,101148.44
2019-01-25T08:42:15.626Z,101153.02
2019-01-25T08:44:45.540Z,101143.72
2019-01-25T08:47:15.166Z,101147.50
2019-01-25T08:49:44.857Z,101136.88
2019-01-25T08:52:14.456Z,101146.63
2019-01-25T08:54:44.038Z,101146.63
2019-01-25T08:57:13.821Z,101139.36
2019-01-25T08:59:45.618Z,101134.77
2019-01-25T09:02:14.711Z,101135.09
2019-01-25T09:04:44.593Z,101132.13
2019-01-25T09:07:14.249Z,101137.42
2019-01-25T09:09:43.851Z,101128.00
2019-01-25T09:12:13.506Z,101124.84
2019-01-25T09:14:43.160Z,101126.78
2019-01-25T09:17:12.867Z,101125.89
2019-01-25T09:19:42.430Z,101125.18
2019-01-25T09:22:12.050Z,101123.69
2019-01-25T09:24:41.652Z,101130.94
2019-01-25T09:27:11.262Z,101132.94
2019-01-25T09:29:40.866Z,101144.35
2019-01-25T09:32:10.934Z,101150.08
2019-01-25T09:34:40.533Z,101147.06
2019-01-25T09:37:10.137Z,101136.80
2019-01-25T09:39:39.748Z,101147.47
2019-01-25T09:42:09.349Z,101141.66
2019-01-25T09:44:38.897Z,101149.20
2019-01-25T09:47:08.644Z,101143.66
2019-01-25T09:49:38.255Z,101146.70
2019-01-25T09:52:07.934Z,101145.25
2019-01-25T09:54:37.587Z,101151.30
2019-01-25T09:57:07.382Z,101142.88
2019-01-25T09:59:37.023Z,101151.48
2019-01-25T10:02:06.670Z,101152.20
2019-01-25T10:04:36.281Z,101145.14
2019-01-25T10:07:05.931Z,101147.78
2019-01-25T10:09:35.511Z,101153.13
2019-01-25T10:12:05.351Z,101145.78
2019-01-25T10:14:35.027Z,101133.59
2019-01-25T10:17:04.862Z,101129.20
2019-01-25T10:19:34.464Z,101125.09
2019-01-25T10:22:04.180Z,101112.19
2019-01-25T10:24:33.789Z,101101.49
2019-01-25T10:27:03.417Z,101090.14
2019-01-25T10:29:33.006Z,101088.19
2019-01-25T10:32:02.616Z,101097.43
2019-01-25T10:34:32.265Z,101093.77
2019-01-25T10:37:01.863Z,101085.05
2019-01-25T10:39:31.636Z,101081.42
2019-01-25T10:42:01.431Z,101089.95
2019-01-25T10:44:31.075Z,101089.66
2019-01-25T10:47:00.687Z,101083.55
2019-01-25T10:49:30.269Z,101082.25
2019-01-25T10:51:59.867Z,101075.13
2019-01-25T10:54:29.646Z,101081.90
2019-01-25T10:56:59.424Z,101084.52
2019-01-25T10:59:29.195Z,101089.19
2019-01-25T11:01:58.795Z,101081.09
2019-01-25T11:04:28.485Z,101076.66
2019-01-25T11:06:58.264Z,101066.73
2019-01-25T11:09:27.879Z,101065.73
2019-01-25T11:11:57.577Z,101064.74
2019-01-25T11:14:27.281Z,101062.27
2019-01-25T11:16:56.844Z,101060.09
2019-01-25T11:19:26.412Z,101057.63
2019-01-25T11:21:56.036Z,101052.53
2019-01-25T11:24:25.631Z,101041.80
2019-01-25T11:26:55.227Z,101045.10
2019-01-25T11:29:24.896Z,101035.19
2019-01-25T11:31:54.500Z,101041.48
2019-01-25T11:34:24.098Z,101038.52
2019-01-25T11:36:53.705Z,101034.82
2019-01-25T11:39:23.346Z,101025.42
2019-01-25T11:41:53.044Z,101025.80
2019-01-25T11:44:22.669Z,101017.05
2019-01-25T11:46:52.281Z,101016.72
2019-01-25T11:49:21.890Z,101019.02
2019-01-25T11:51:51.511Z,101023.14
2019-01-25T11:54:21.188Z,101015.91
2019-01-25T11:56:50.835Z,101009.28
2019-01-25T11:59:20.461Z,101011.77
2019-01-25T12:01:50.173Z,101016.39
2019-01-25T12:04:19.779Z,101010.95
2019-01-25T12:06:49.450Z,101018.53
2019-01-25T12:09:19.100Z,101013.75
2019-01-25T12:11:48.781Z,101016.53
2019-01-25T12:14:18.402Z,101012.92
2019-01-25T12:16:48.073Z,101003.33
2019-01-25T12:19:17.774Z,100997.91
2019-01-25T12:21:47.398Z,100988.64
2019-01-25T12:24:19.893Z,100983.86
2019-01-25T12:26:49.468Z,100985.03
2019-01-25T12:29:19.133Z,100976.08
2019-01-25T12:31:48.738Z,100974.98
2019-01-25T12:34:18.331Z,100977.11
2019-01-25T12:36:47.958Z,100977.92
2019-01-25T12:39:17.570Z,100989.50
2019-01-25T12:41:47.348Z,100989.48
2019-01-25T12:44:17.056Z,100986.64
2019-01-25T12:46:46.691Z,100975.27
2019-01-25T12:49:16.269Z,100967.67
2019-01-25T12:52:09.997Z,100968.52
2019-01-25T12:54:39.720Z,100969.19
2019-01-25T12:57:09.813Z,100963.07
2019-01-25T12:59:39.484Z,100960.11
2019-01-25T13:02:09.184Z,100949.89
2019-01-25T13:04:38.831Z,100943.13
2019-01-25T13:07:08.547Z,100944.93
2019-01-25T13:09:38.162Z,100944.58
2019-01-25T13:12:12.482Z,100942.80
2019-01-25T13:14:42.047Z,100944.77
2019-01-25T13:17:11.878Z,100942.46
2019-01-25T13:19:41.464Z,100942.64
2019-01-25T13:22:11.070Z,100941.16
2019-01-25T13:24:40.656Z,100950.05
2019-01-25T13:27:10.384Z,100937.34
2019-01-25T13:29:39.958Z,100948.75
2019-01-25T13:32:14.416Z,100952.55
2019-01-25T13:34:41.008Z,100954.19
2019-01-25T13:37:11.300Z,100948.91
2019-01-25T13:39:40.932Z,100939.00
2019-01-25T13:42:10.508Z,100930.08
2019-01-25T13:44:40.130Z,100936.03
2019-01-25T13:47:09.750Z,100929.92
2019-01-25T13:49:39.478Z,100934.53
2019-01-25T13:52:09.220Z,100929.10
2019-01-25T13:54:38.946Z,100926.31
2019-01-25T13:57:08.742Z,100929.77
2019-01-25T13:59:38.832Z,100926.13
2019-01-25T14:02:08.490Z,100921.69
2019-01-25T14:04:38.144Z,100919.88
2019-01-25T14:07:07.804Z,100909.13
2019-01-25T14:09:37.504Z,100919.05
2019-01-25T14:12:08.668Z,100914.10
2019-01-25T14:14:38.546Z,100914.08
2019-01-25T14:17:08.339Z,100916.09
2019-01-25T14:19:37.963Z,100911.30
2019-01-25T14:22:07.617Z,100913.28
2019-01-25T14:24:46.974Z,100904.03
2019-01-25T14:27:16.605Z,100903.05
2019-01-25T14:29:46.326Z,100905.70
2019-01-25T14:32:16.052Z,100904.55
2019-01-25T14:34:45.725Z,100890.68
2019-01-25T14:37:15.482Z,100892.67
2019-01-25T14:39:45.412Z,100891.36
2019-01-25T14:42:15.046Z,100893.17
2019-01-25T14:44:44.859Z,100896.62
2019-01-25T14:47:14.486Z,100893.64
2019-01-25T14:49:44.127Z,100897.77
2019-01-25T14:52:13.823Z,100894.14
2019-01-25T14:54:43.673Z,100891.83
2019-01-25T14:57:13.549Z,100893.81
2019-01-25T14:59:44.369Z,100891.16
2019-01-25T15:02:14.055Z,100896.28
2019-01-25T15:04:43.832Z,100888.22
2019-01-25T15:07:13.415Z,100887.39
2019-01-25T15:09:43.607Z,100886.73
2019-01-25T15:12:15.004Z,100883.27
2019-01-25T15:14:44.979Z,100884.74
2019-01-25T15:17:14.599Z,100877.95
2019-01-25T15:19:44.796Z,100881.74
2019-01-25T15:22:14.558Z,100872.17
2019-01-25T15:24:44.269Z,100871.71
2019-01-25T15:27:14.029Z,100868.44
2019-01-25T15:29:49.720Z,100878.95
2019-01-25T15:32:19.367Z,100869.88
2019-01-25T15:34:49.148Z,100880.25
2019-01-25T15:37:18.808Z,100879.80
2019-01-25T15:39:48.511Z,100880.28
2019-01-25T15:42:18.209Z,100880.47
2019-01-25T15:44:47.877Z,100880.61
2019-01-25T15:47:17.882Z,100880.74
2019-01-25T15:49:47.579Z,100879.65
2019-01-25T15:52:17.244Z,100881.43
2019-01-25T15:54:47.704Z,100879.97
2019-01-25T15:57:17.794Z,100881.63
2019-01-25T15:59:47.337Z,100871.22
2019-01-25T16:02:17.041Z,100869.59
2019-01-25T16:04:46.660Z,100869.70
2019-01-25T16:07:16.333Z,100864.14
2019-01-25T16:09:46.077Z,100851.62
2019-01-25T16:12:15.734Z,100842.22
2019-01-25T16:14:45.421Z,100842.73
2019-01-25T16:17:15.227Z,100831.52
2019-01-25T16:19:44.826Z,100827.55
2019-01-25T16:22:14.414Z,100829.51
2019-01-25T16:24:44.341Z,100838.55
2019-01-25T16:27:14.007Z,100839.86
2019-01-25T16:29:43.685Z,100838.84
2019-01-25T16:32:15.799Z,100845.95
2019-01-25T16:35:02.259Z,100847.95
2019-01-25T16:37:44.908Z,100845.98
2019-01-25T16:40:18.854Z,100843.85
2019-01-25T16:42:48.546Z,100827.55
2019-01-25T16:45:23.573Z,100817.50
2019-01-25T16:47:53.255Z,100830.86
2019-01-25T16:50:23.803Z,100837.61
2019-01-25T16:52:53.767Z,100828.52
2019-01-25T16:55:23.543Z,100834.15
2019-01-25T16:57:53.210Z,100825.87
2019-01-25T17:00:26.589Z,100828.17
2019-01-25T17:02:56.244Z,100828.70
2019-01-25T17:05:26.557Z,100831.61
2019-01-25T17:07:56.254Z,100824.05
2019-01-25T17:10:26.088Z,100806.61
2019-01-25T17:12:58.775Z,100805.61
2019-01-25T17:15:28.530Z,100797.39
2019-01-25T17:17:58.451Z,100787.80
2019-01-25T17:20:28.225Z,100772.67
2019-01-25T17:22:58.097Z,100783.38
2019-01-25T17:25:27.787Z,100788.83
2019-01-25T17:27:57.823Z,100783.88
2019-01-25T17:30:29.343Z,100795.88
2019-01-25T17:33:00.191Z,100795.88
2019-01-25T17:35:30.302Z,100787.80
2019-01-25T17:38:00.068Z,100782.04
2019-01-25T17:40:35.972Z,100779.23
2019-01-25T17:43:05.891Z,100764.22
2019-01-25T17:45:35.595Z,100765.27
2019-01-25T17:48:06.132Z,100760.30
2019-01-25T17:50:35.810Z,100755.02
2019-01-25T17:53:05.522Z,100751.74
2019-01-25T17:55:35.200Z,100746.30
2019-01-25T17:58:08.140Z,100742.19
2019-01-25T18:00:55.455Z,100742.19
2019-01-25T18:03:25.155Z,100731.99
2019-01-25T18:05:54.772Z,100733.44
2019-01-25T18:08:24.543Z,100732.95
2019-01-25T18:10:54.226Z,100735.45
2019-01-25T18:13:23.903Z,100722.44
2019-01-25T18:15:53.608Z,100708.94
2019-01-25T18:18:23.276Z,100699.04
2019-01-25T18:20:52.924Z,100680.39
2019-01-25T18:23:22.581Z,100676.27
2019-01-25T18:26:06.037Z,100666.89
2019-01-25T18:28:39.719Z,100660.50
2019-01-25T18:31:16.499Z,100668.04
2019-01-25T18:33:46.284Z,100660.55
2019-01-25T18:36:21.973Z,100647.37
2019-01-25T18:38:51.589Z,100630.92
2019-01-25T18:41:21.296Z,100633.09
2019-01-25T18:43:51.009Z,100623.23
2019-01-25T18:46:20.644Z,100627.51
2019-01-25T18:48:50.243Z,100621.38
2019-01-25T18:51:19.893Z,100609.91
2019-01-25T18:53:49.491Z,100606.92
2019-01-25T18:56:21.037Z,100597.03
2019-01-25T18:58:50.657Z,100592.54
2019-01-25T19:01:20.348Z,100587.77
2019-01-25T19:03:50.723Z,100574.39
2019-01-25T19:06:20.343Z,100572.30
2019-01-25T19:08:50.003Z,100566.02
2019-01-25T19:11:19.787Z,100562.12
2019-01-25T19:13:49.461Z,100553.22
2019-01-25T19:16:19.193Z,100552.05
2019-01-25T19:18:48.809Z,100550.55
2019-01-25T19:21:20.856Z,100539.41
2019-01-25T19:23:50.273Z,100539.91
2019-01-25T19:26:20.025Z,100537.56
2019-01-25T19:28:49.707Z,100531.21
2019-01-25T19:31:19.334Z,100524.38
2019-01-25T19:33:49.090Z,100518.63
2019-01-25T19:36:18.770Z,100508.73
2019-01-25T19:38:48.522Z,100504.92
2019-01-25T19:41:18.195Z,100499.00
2019-01-25T19:43:47.991Z,100501.18
2019-01-25T19:46:17.582Z,100482.23
2019-01-25T19:48:47.262Z,100473.66
2019-01-25T19:51:16.996Z,100462.45
2019-01-25T19:53:46.725Z,100464.30
2019-01-25T19:56:16.341Z,100457.29
2019-01-25T19:58:46.000Z,100450.06
2019-01-25T20:01:15.702Z,100460.78
2019-01-25T20:03:45.486Z,100460.36
2019-01-25T20:06:18.538Z,100453.67
2019-01-25T20:08:48.242Z,100452.35
2019-01-25T20:11:17.876Z,100449.23
2019-01-25T20:13:48.617Z,100451.02
2019-01-25T20:16:18.314Z,100444.69
2019-01-25T20:18:47.948Z,100429.20
2019-01-25T20:21:17.554Z,100411.11
2019-01-25T20:23:47.220Z,100407.30
2019-01-25T20:26:16.934Z,100407.81
2019-01-25T20:28:46.597Z,100408.03
2019-01-25T20:31:16.312Z,100402.39
2019-01-25T20:33:46.024Z,100408.77
2019-01-25T20:36:15.669Z,100407.38
2019-01-25T20:38:45.306Z,100397.28
2019-01-25T20:41:15.135Z,100397.20
2019-01-25T20:43:44.734Z,100384.64
2019-01-25T20:46:14.462Z,100380.61
2019-01-25T20:48:44.080Z,100371.03
2019-01-25T20:51:13.763Z,100361.05
2019-01-25T20:53:43.494Z,100361.22
2019-01-25T20:56:13.122Z,100349.53
2019-01-25T20:58:42.776Z,100345.63
2019-01-25T21:01:14.946Z,100346.58
2019-01-25T21:03:47.509Z,100354.03
2019-01-25T21:06:17.266Z,100350.98
2019-01-25T21:08:46.862Z,100353.48
2019-01-25T21:11:16.552Z,100344.98
2019-01-25T21:13:46.302Z,100339.03
2019-01-25T21:16:19.426Z,100335.37
2019-01-25T21:18:49.062Z,100330.78
2019-01-25T21:21:18.728Z,100320.75
2019-01-25T21:23:48.463Z,100314.24
2019-01-25T21:26:18.156Z,100299.34
2019-01-25T21:28:47.871Z,100290.31
2019-01-25T21:31:17.510Z,100286.67
2019-01-25T21:33:47.289Z,100282.52
2019-01-25T21:36:16.922Z,100285.67
2019-01-25T21:38:47.076Z,100286.78
2019-01-25T21:41:16.726Z,100280.19
2019-01-25T21:43:46.341Z,100266.08
2019-01-25T21:46:17.882Z,100260.07
2019-01-25T21:48:47.645Z,100260.38
2019-01-25T21:51:17.330Z,100258.69
2019-01-25T21:53:47.110Z,100249.59
2019-01-25T21:56:16.983Z,100253.89
2019-01-25T21:58:46.953Z,100238.84
2019-01-25T22:01:16.661Z,100222.66
2019-01-25T22:03:46.268Z,100213.82
2019-01-25T22:06:16.051Z,100207.13
2019-01-25T22:08:45.718Z,100208.93
2019-01-25T22:11:15.343Z,100210.94
2019-01-25T22:13:44.954Z,100203.45
2019-01-25T22:16:14.582Z,100196.09
2019-01-25T22:18:44.168Z,100183.45
2019-01-25T22:21:13.870Z,100182.69
2019-01-25T22:23:43.636Z,100177.16
2019-01-25T22:26:13.264Z,100170.70
2019-01-25T22:28:42.848Z,100170.67
2019-01-25T22:31:12.482Z,100158.31
2019-01-25T22:33:42.144Z,100155.63
2019-01-25T22:36:11.834Z,100161.03
2019-01-25T22:38:41.425Z,100163.55
2019-01-25T22:41:11.095Z,100140.81
2019-01-25T22:43:40.695Z,100135.49
2019-01-25T22:46:10.281Z,100134.92
2019-01-25T22:48:39.903Z,100127.27
2019-01-25T22:51:09.567Z,100132.34
2019-01-25T22:53:39.933Z,100123.75
2019-01-25T22:56:09.640Z,100108.80
2019-01-25T22:58:39.366Z,100116.94
2019-01-25T23:01:25.794Z,100107.66
2019-01-25T23:04:44.796Z,100096.84
2019-01-25T23:07:19.472Z,100097.05
2019-01-25T23:10:10.315Z,100084.66
2019-01-25T23:12:39.986Z,100085.98
2019-01-25T23:15:12.014Z,100077.19
2019-01-25T23:17:42.125Z,100060.11
2019-01-25T23:22:51.414Z,100051.34
2019-01-25T23:25:21.054Z,100053.02
2019-01-25T23:27:50.621Z,100058.98
2019-01-25T23:30:35.941Z,100060.40
2019-01-25T23:33:06.235Z,100060.97
2019-01-25T23:35:37.913Z,100045.03
2019-01-25T23:38:09.173Z,100043.09
2019-01-25T23:40:38.764Z,100045.47
2019-01-25T23:43:08.413Z,100034.48
2019-01-25T23:45:38.347Z,100029.77
2019-01-25T23:48:08.353Z,100024.98
2019-01-25T23:50:37.944Z,100018.66
2019-01-25T23:53:07.836Z,100024.61
2019-01-25T23:55:37.438Z,100028.83
2019-01-25T23:58:06.993Z,100010.64
